sensor_id;sensor_type;location;lat;lon;timestamp;temperature;humidity
33109;HTU21D;19481;51.118;6.940;2024-03-02T00:02:39;8.18;57.49
33109;HTU21D;19481;51.118;6.940;2024-03-02T00:07:41;8.17;57.32
33109;HTU21D;19481;51.118;6.940;2024-03-02T00:12:47;8.23;58.32
33109;HTU21D;19481;51.118;6.940;2024-03-02T00:17:53;8.28;57.12
33109;HTU21D;19481;51.118;6.940;2024-03-02T00:23:00;8.35;56.82
33109;HTU21D;19481;51.118;6.940;2024-03-02T00:28:04;8.41;57.26
33109;HTU21D;19481;51.118;6.940;2024-03-02T00:33:09;8.45;59.08
33109;HTU21D;19481;51.118;6.940;2024-03-02T00:38:12;8.49;57.19
33109;HTU21D;19481;51.118;6.940;2024-03-02T00:43:38;8.57;58.29
33109;HTU21D;19481;51.118;6.940;2024-03-02T00:48:56;8.64;58.00
33109;HTU21D;19481;51.118;6.940;2024-03-02T00:53:59;8.66;56.51
33109;HTU21D;19481;51.118;6.940;2024-03-02T00:59:01;8.75;57.48
33109;HTU21D;19481;51.118;6.940;2024-03-02T01:04:04;8.87;56.16
33109;HTU21D;19481;51.118;6.940;2024-03-02T01:09:05;8.93;56.14
33109;HTU21D;19481;51.118;6.940;2024-03-02T01:14:07;9.00;56.26
33109;HTU21D;19481;51.118;6.940;2024-03-02T01:19:10;9.00;56.28
33109;HTU21D;19481;51.118;6.940;2024-03-02T01:24:12;8.96;56.25
33109;HTU21D;19481;51.118;6.940;2024-03-02T01:29:14;8.91;56.65
33109;HTU21D;19481;51.118;6.940;2024-03-02T01:34:17;8.88;56.79
33109;HTU21D;19481;51.118;6.940;2024-03-02T01:39:18;8.80;56.55
33109;HTU21D;19481;51.118;6.940;2024-03-02T01:44:20;8.78;56.84
33109;HTU21D;19481;51.118;6.940;2024-03-02T01:49:23;8.86;56.87
33109;HTU21D;19481;51.118;6.940;2024-03-02T01:54:24;8.98;56.13
33109;HTU21D;19481;51.118;6.940;2024-03-02T01:59:26;9.10;55.75
33109;HTU21D;19481;51.118;6.940;2024-03-02T02:04:30;9.22;55.45
33109;HTU21D;19481;51.118;6.940;2024-03-02T02:09:31;9.30;55.24
33109;HTU21D;19481;51.118;6.940;2024-03-02T02:14:33;9.35;55.21
33109;HTU21D;19481;51.118;6.940;2024-03-02T02:19:36;9.34;55.33
33109;HTU21D;19481;51.118;6.940;2024-03-02T02:24:41;9.35;55.19
33109;HTU21D;19481;51.118;6.940;2024-03-02T02:29:42;9.37;55.04
33109;HTU21D;19481;51.118;6.940;2024-03-02T02:34:44;9.44;55.16
33109;HTU21D;19481;51.118;6.940;2024-03-02T02:39:47;9.41;54.94
33109;HTU21D;19481;51.118;6.940;2024-03-02T02:44:49;9.44;55.24
33109;HTU21D;19481;51.118;6.940;2024-03-02T02:49:50;9.42;54.95
33109;HTU21D;19481;51.118;6.940;2024-03-02T02:54:53;9.45;55.03
33109;HTU21D;19481;51.118;6.940;2024-03-02T02:59:55;9.48;54.55
33109;HTU21D;19481;51.118;6.940;2024-03-02T03:04:56;9.45;54.95
33109;HTU21D;19481;51.118;6.940;2024-03-02T03:09:59;9.45;55.44
33109;HTU21D;19481;51.118;6.940;2024-03-02T03:15:02;9.46;55.31
33109;HTU21D;19481;51.118;6.940;2024-03-02T03:20:05;9.47;55.36
33109;HTU21D;19481;51.118;6.940;2024-03-02T03:25:11;9.47;55.37
33109;HTU21D;19481;51.118;6.940;2024-03-02T03:30:13;9.45;55.47
33109;HTU21D;19481;51.118;6.940;2024-03-02T03:35:15;9.39;55.66
33109;HTU21D;19481;51.118;6.940;2024-03-02T03:40:18;9.33;55.61
33109;HTU21D;19481;51.118;6.940;2024-03-02T03:45:20;9.27;55.71
33109;HTU21D;19481;51.118;6.940;2024-03-02T03:50:21;9.19;55.46
33109;HTU21D;19481;51.118;6.940;2024-03-02T03:55:24;9.09;56.15
33109;HTU21D;19481;51.118;6.940;2024-03-02T04:00:26;9.00;55.94
33109;HTU21D;19481;51.118;6.940;2024-03-02T04:05:28;8.90;56.50
33109;HTU21D;19481;51.118;6.940;2024-03-02T04:10:31;8.85;56.60
33109;HTU21D;19481;51.118;6.940;2024-03-02T04:15:32;8.74;56.71
33109;HTU21D;19481;51.118;6.940;2024-03-02T04:20:34;8.67;56.85
33109;HTU21D;19481;51.118;6.940;2024-03-02T04:25:37;8.52;57.35
33109;HTU21D;19481;51.118;6.940;2024-03-02T04:30:38;8.47;57.16
33109;HTU21D;19481;51.118;6.940;2024-03-02T04:35:40;8.42;57.22
33109;HTU21D;19481;51.118;6.940;2024-03-02T04:40:43;8.39;57.19
33109;HTU21D;19481;51.118;6.940;2024-03-02T04:45:45;8.42;57.20
33109;HTU21D;19481;51.118;6.940;2024-03-02T04:50:46;8.37;57.26
33109;HTU21D;19481;51.118;6.940;2024-03-02T04:55:49;8.23;57.50
33109;HTU21D;19481;51.118;6.940;2024-03-02T05:01:19;8.14;57.94
33109;HTU21D;19481;51.118;6.940;2024-03-02T05:06:21;8.12;57.87
33109;HTU21D;19481;51.118;6.940;2024-03-02T05:11:24;8.13;58.96
33109;HTU21D;19481;51.118;6.940;2024-03-02T05:16:43;8.06;57.79
33109;HTU21D;19481;51.118;6.940;2024-03-02T05:21:45;7.98;57.89
33109;HTU21D;19481;51.118;6.940;2024-03-02T05:26:48;7.85;58.74
33109;HTU21D;19481;51.118;6.940;2024-03-02T05:31:49;7.79;59.04
33109;HTU21D;19481;51.118;6.940;2024-03-02T05:36:51;7.68;58.99
33109;HTU21D;19481;51.118;6.940;2024-03-02T05:41:54;7.58;58.83
33109;HTU21D;19481;51.118;6.940;2024-03-02T05:46:55;7.52;58.86
33109;HTU21D;19481;51.118;6.940;2024-03-02T05:51:57;7.48;59.41
33109;HTU21D;19481;51.118;6.940;2024-03-02T05:57:00;7.42;58.93
33109;HTU21D;19481;51.118;6.940;2024-03-02T06:02:17;7.38;59.23
33109;HTU21D;19481;51.118;6.940;2024-03-02T06:07:18;7.30;59.43
33109;HTU21D;19481;51.118;6.940;2024-03-02T06:12:21;7.31;59.06
33109;HTU21D;19481;51.118;6.940;2024-03-02T06:17:23;7.31;59.22
33109;HTU21D;19481;51.118;6.940;2024-03-02T06:22:24;7.35;59.06
33109;HTU21D;19481;51.118;6.940;2024-03-02T06:27:27;7.37;60.33
33109;HTU21D;19481;51.118;6.940;2024-03-02T06:32:29;7.35;59.26
33109;HTU21D;19481;51.118;6.940;2024-03-02T06:37:31;7.48;58.92
33109;HTU21D;19481;51.118;6.940;2024-03-02T06:42:34;7.57;58.97
33109;HTU21D;19481;51.118;6.940;2024-03-02T06:47:36;7.64;58.63
33109;HTU21D;19481;51.118;6.940;2024-03-02T06:52:37;7.76;58.29
33109;HTU21D;19481;51.118;6.940;2024-03-02T06:57:40;7.88;58.18
33109;HTU21D;19481;51.118;6.940;2024-03-02T07:02:42;8.00;58.43
33109;HTU21D;19481;51.118;6.940;2024-03-02T07:07:43;8.19;57.71
33109;HTU21D;19481;51.118;6.940;2024-03-02T07:12:46;8.43;57.03
33109;HTU21D;19481;51.118;6.940;2024-03-02T07:17:48;8.67;56.69
33109;HTU21D;19481;51.118;6.940;2024-03-02T07:22:49;8.81;56.45
33109;HTU21D;19481;51.118;6.940;2024-03-02T07:27:52;9.05;56.14
33109;HTU21D;19481;51.118;6.940;2024-03-02T07:32:54;9.36;55.78
33109;HTU21D;19481;51.118;6.940;2024-03-02T07:37:56;9.99;54.35
33109;HTU21D;19481;51.118;6.940;2024-03-02T07:42:59;12.91;47.80
33109;HTU21D;19481;51.118;6.940;2024-03-02T07:48:01;13.22;48.94
33109;HTU21D;19481;51.118;6.940;2024-03-02T07:53:04;12.17;52.46
33109;HTU21D;19481;51.118;6.940;2024-03-02T07:58:07;12.33;49.56
33109;HTU21D;19481;51.118;6.940;2024-03-02T08:03:09;12.20;49.66
33109;HTU21D;19481;51.118;6.940;2024-03-02T08:08:11;14.35;44.98
33109;HTU21D;19481;51.118;6.940;2024-03-02T08:13:14;15.91;43.78
33109;HTU21D;19481;51.118;6.940;2024-03-02T08:18:16;15.69;43.29
33109;HTU21D;19481;51.118;6.940;2024-03-02T08:23:17;16.84;46.14
33109;HTU21D;19481;51.118;6.940;2024-03-02T08:28:21;17.64;36.02
33109;HTU21D;19481;51.118;6.940;2024-03-02T08:33:22;18.18;45.25
33109;HTU21D;19481;51.118;6.940;2024-03-02T08:38:24;17.32;47.83
33109;HTU21D;19481;51.118;6.940;2024-03-02T08:43:27;15.32;51.79
33109;HTU21D;19481;51.118;6.940;2024-03-02T08:48:29;13.67;52.00
33109;HTU21D;19481;51.118;6.940;2024-03-02T08:53:30;13.08;52.67
33109;HTU21D;19481;51.118;6.940;2024-03-02T08:58:33;12.63;51.24
33109;HTU21D;19481;51.118;6.940;2024-03-02T09:03:35;13.11;52.87
33109;HTU21D;19481;51.118;6.940;2024-03-02T09:08:37;13.89;51.02
33109;HTU21D;19481;51.118;6.940;2024-03-02T09:13:40;14.22;47.61
33109;HTU21D;19481;51.118;6.940;2024-03-02T09:18:42;14.21;49.11
33109;HTU21D;19481;51.118;6.940;2024-03-02T09:23:44;15.17;47.80
33109;HTU21D;19481;51.118;6.940;2024-03-02T09:28:47;15.21;45.66
33109;HTU21D;19481;51.118;6.940;2024-03-02T09:33:49;14.91;46.45
33109;HTU21D;19481;51.118;6.940;2024-03-02T09:38:50;15.32;48.49
33109;HTU21D;19481;51.118;6.940;2024-03-02T09:43:54;15.23;44.60
33109;HTU21D;19481;51.118;6.940;2024-03-02T09:48:56;15.49;45.82
33109;HTU21D;19481;51.118;6.940;2024-03-02T09:54:00;15.58;46.37
33109;HTU21D;19481;51.118;6.940;2024-03-02T09:59:03;15.86;42.98
33109;HTU21D;19481;51.118;6.940;2024-03-02T10:04:05;15.32;49.50
33109;HTU21D;19481;51.118;6.940;2024-03-02T10:09:07;15.71;44.51
33109;HTU21D;19481;51.118;6.940;2024-03-02T10:14:11;15.25;48.02
33109;HTU21D;19481;51.118;6.940;2024-03-02T10:19:17;15.27;47.01
33109;HTU21D;19481;51.118;6.940;2024-03-02T10:24:19;15.31;47.76
33109;HTU21D;19481;51.118;6.940;2024-03-02T10:29:23;15.28;44.30
33109;HTU21D;19481;51.118;6.940;2024-03-02T10:34:28;15.38;43.80
33109;HTU21D;19481;51.118;6.940;2024-03-02T10:39:30;15.60;47.67
33109;HTU21D;19481;51.118;6.940;2024-03-02T10:44:34;15.69;47.67
33109;HTU21D;19481;51.118;6.940;2024-03-02T10:49:38;15.51;45.00
33109;HTU21D;19481;51.118;6.940;2024-03-02T10:54:40;15.36;45.05
33109;HTU21D;19481;51.118;6.940;2024-03-02T10:59:51;16.03;39.56
33109;HTU21D;19481;51.118;6.940;2024-03-02T11:04:55;15.98;47.06
33109;HTU21D;19481;51.118;6.940;2024-03-02T11:10:01;15.96;46.36
33109;HTU21D;19481;51.118;6.940;2024-03-02T11:15:11;15.89;44.11
33109;HTU21D;19481;51.118;6.940;2024-03-02T11:20:15;15.81;46.22
33109;HTU21D;19481;51.118;6.940;2024-03-02T11:25:26;15.91;40.82
33109;HTU21D;19481;51.118;6.940;2024-03-02T11:30:50;16.15;39.99
33109;HTU21D;19481;51.118;6.940;2024-03-02T11:35:53;16.66;40.23
33109;HTU21D;19481;51.118;6.940;2024-03-02T11:40:54;16.43;45.28
33109;HTU21D;19481;51.118;6.940;2024-03-02T11:46:01;16.48;40.57
33109;HTU21D;19481;51.118;6.940;2024-03-02T11:51:07;16.84;44.65
33109;HTU21D;19481;51.118;6.940;2024-03-02T11:56:09;16.67;44.89
33109;HTU21D;19481;51.118;6.940;2024-03-02T12:01:13;15.78;46.06
33109;HTU21D;19481;51.118;6.940;2024-03-02T12:06:15;16.10;45.73
33109;HTU21D;19481;51.118;6.940;2024-03-02T12:11:16;15.73;42.19
33109;HTU21D;19481;51.118;6.940;2024-03-02T12:16:24;15.60;42.76
33109;HTU21D;19481;51.118;6.940;2024-03-02T12:21:26;15.07;46.90
33109;HTU21D;19481;51.118;6.940;2024-03-02T12:26:28;14.86;47.44
33109;HTU21D;19481;51.118;6.940;2024-03-02T12:31:31;14.85;44.21
33109;HTU21D;19481;51.118;6.940;2024-03-02T12:36:37;14.91;42.53
33109;HTU21D;19481;51.118;6.940;2024-03-02T12:41:39;14.80;45.60
33109;HTU21D;19481;51.118;6.940;2024-03-02T12:46:42;14.62;44.38
33109;HTU21D;19481;51.118;6.940;2024-03-02T12:51:44;14.81;44.27
33109;HTU21D;19481;51.118;6.940;2024-03-02T12:56:47;14.67;45.89
33109;HTU21D;19481;51.118;6.940;2024-03-02T13:01:54;14.86;44.29
33109;HTU21D;19481;51.118;6.940;2024-03-02T13:06:57;14.73;47.75
33109;HTU21D;19481;51.118;6.940;2024-03-02T13:11:59;14.73;47.09
33109;HTU21D;19481;51.118;6.940;2024-03-02T13:17:03;14.64;46.05
33109;HTU21D;19481;51.118;6.940;2024-03-02T13:22:05;14.81;47.24
33109;HTU21D;19481;51.118;6.940;2024-03-02T13:27:07;14.72;47.31
33109;HTU21D;19481;51.118;6.940;2024-03-02T13:32:10;14.77;43.51
33109;HTU21D;19481;51.118;6.940;2024-03-02T13:37:11;14.92;47.20
33109;HTU21D;19481;51.118;6.940;2024-03-02T13:42:13;15.32;45.93
33109;HTU21D;19481;51.118;6.940;2024-03-02T13:47:16;15.42;41.21
33109;HTU21D;19481;51.118;6.940;2024-03-02T13:52:18;15.25;46.55
33109;HTU21D;19481;51.118;6.940;2024-03-02T13:57:20;15.28;46.69
33109;HTU21D;19481;51.118;6.940;2024-03-02T14:02:23;15.44;46.55
33109;HTU21D;19481;51.118;6.940;2024-03-02T14:07:26;15.54;45.06
33109;HTU21D;19481;51.118;6.940;2024-03-02T14:12:28;15.62;46.31
33109;HTU21D;19481;51.118;6.940;2024-03-02T14:17:31;16.28;44.55
33109;HTU21D;19481;51.118;6.940;2024-03-02T14:22:33;15.78;43.02
33109;HTU21D;19481;51.118;6.940;2024-03-02T14:27:34;15.77;39.27
33109;HTU21D;19481;51.118;6.940;2024-03-02T14:32:38;15.19;43.39
33109;HTU21D;19481;51.118;6.940;2024-03-02T14:37:39;15.18;41.55
33109;HTU21D;19481;51.118;6.940;2024-03-02T14:42:41;15.18;43.80
33109;HTU21D;19481;51.118;6.940;2024-03-02T14:47:48;15.10;43.73
33109;HTU21D;19481;51.118;6.940;2024-03-02T14:52:50;15.03;45.44
33109;HTU21D;19481;51.118;6.940;2024-03-02T14:57:52;15.09;46.30
33109;HTU21D;19481;51.118;6.940;2024-03-02T15:02:55;15.02;46.70
33109;HTU21D;19481;51.118;6.940;2024-03-02T15:07:57;14.84;44.35
33109;HTU21D;19481;51.118;6.940;2024-03-02T15:12:59;14.85;43.70
33109;HTU21D;19481;51.118;6.940;2024-03-02T15:18:03;14.79;45.94
33109;HTU21D;19481;51.118;6.940;2024-03-02T15:23:05;14.85;46.24
33109;HTU21D;19481;51.118;6.940;2024-03-02T15:28:07;14.80;44.93
33109;HTU21D;19481;51.118;6.940;2024-03-02T15:33:10;14.78;46.83
33109;HTU21D;19481;51.118;6.940;2024-03-02T15:38:11;14.77;46.99
33109;HTU21D;19481;51.118;6.940;2024-03-02T15:43:15;14.62;43.22
33109;HTU21D;19481;51.118;6.940;2024-03-02T15:48:18;14.64;46.48
33109;HTU21D;19481;51.118;6.940;2024-03-02T15:53:20;14.64;45.37
33109;HTU21D;19481;51.118;6.940;2024-03-02T15:58:22;14.62;46.23
33109;HTU21D;19481;51.118;6.940;2024-03-02T16:03:24;14.60;45.53
33109;HTU21D;19481;51.118;6.940;2024-03-02T16:08:26;14.60;46.90
33109;HTU21D;19481;51.118;6.940;2024-03-02T16:13:28;14.63;47.09
33109;HTU21D;19481;51.118;6.940;2024-03-02T16:18:31;14.58;43.43
33109;HTU21D;19481;51.118;6.940;2024-03-02T16:23:34;14.59;45.36
33109;HTU21D;19481;51.118;6.940;2024-03-02T16:28:36;14.57;46.60
33109;HTU21D;19481;51.118;6.940;2024-03-02T16:33:39;14.48;47.10
33109;HTU21D;19481;51.118;6.940;2024-03-02T16:38:42;14.42;47.27
33109;HTU21D;19481;51.118;6.940;2024-03-02T16:43:44;14.41;46.39
33109;HTU21D;19481;51.118;6.940;2024-03-02T16:48:47;14.40;46.53
33109;HTU21D;19481;51.118;6.940;2024-03-02T16:53:49;14.40;46.84
33109;HTU21D;19481;51.118;6.940;2024-03-02T16:58:51;14.34;46.07
33109;HTU21D;19481;51.118;6.940;2024-03-02T17:03:53;14.36;47.15
33109;HTU21D;19481;51.118;6.940;2024-03-02T17:08:55;14.30;43.45
33109;HTU21D;19481;51.118;6.940;2024-03-02T17:13:57;14.23;47.38
33109;HTU21D;19481;51.118;6.940;2024-03-02T17:19:00;14.14;46.96
33109;HTU21D;19481;51.118;6.940;2024-03-02T17:24:02;14.07;47.10
33109;HTU21D;19481;51.118;6.940;2024-03-02T17:29:03;14.01;47.67
33109;HTU21D;19481;51.118;6.940;2024-03-02T17:34:06;13.98;45.93
33109;HTU21D;19481;51.118;6.940;2024-03-02T17:39:08;13.97;47.34
33109;HTU21D;19481;51.118;6.940;2024-03-02T17:44:10;13.96;47.70
33109;HTU21D;19481;51.118;6.940;2024-03-02T17:49:13;13.93;47.13
33109;HTU21D;19481;51.118;6.940;2024-03-02T17:54:15;13.95;47.56
33109;HTU21D;19481;51.118;6.940;2024-03-02T17:59:17;13.93;47.47
33109;HTU21D;19481;51.118;6.940;2024-03-02T18:04:20;13.90;47.40
33109;HTU21D;19481;51.118;6.940;2024-03-02T18:09:22;13.85;46.22
33109;HTU21D;19481;51.118;6.940;2024-03-02T18:14:24;13.83;45.37
33109;HTU21D;19481;51.118;6.940;2024-03-02T18:19:27;13.82;47.56
33109;HTU21D;19481;51.118;6.940;2024-03-02T18:24:29;13.81;47.61
33109;HTU21D;19481;51.118;6.940;2024-03-02T18:29:31;13.79;45.53
33109;HTU21D;19481;51.118;6.940;2024-03-02T18:34:34;13.73;45.50
33109;HTU21D;19481;51.118;6.940;2024-03-02T18:39:35;13.71;45.47
33109;HTU21D;19481;51.118;6.940;2024-03-02T18:44:37;13.75;47.20
33109;HTU21D;19481;51.118;6.940;2024-03-02T18:49:43;13.73;47.67
33109;HTU21D;19481;51.118;6.940;2024-03-02T18:54:46;13.67;47.94
33109;HTU21D;19481;51.118;6.940;2024-03-02T18:59:47;13.67;47.90
33109;HTU21D;19481;51.118;6.940;2024-03-02T19:04:50;13.62;47.99
33109;HTU21D;19481;51.118;6.940;2024-03-02T19:09:52;13.62;44.87
33109;HTU21D;19481;51.118;6.940;2024-03-02T19:14:53;13.60;48.00
33109;HTU21D;19481;51.118;6.940;2024-03-02T19:19:56;13.54;47.73
33109;HTU21D;19481;51.118;6.940;2024-03-02T19:24:58;13.48;47.28
33109;HTU21D;19481;51.118;6.940;2024-03-02T19:30:01;13.40;46.47
33109;HTU21D;19481;51.118;6.940;2024-03-02T19:35:07;13.33;48.44
33109;HTU21D;19481;51.118;6.940;2024-03-02T19:40:09;13.22;48.07
33109;HTU21D;19481;51.118;6.940;2024-03-02T19:45:11;13.21;48.50
33109;HTU21D;19481;51.118;6.940;2024-03-02T19:50:14;13.18;48.61
33109;HTU21D;19481;51.118;6.940;2024-03-02T19:55:17;13.16;47.65
33109;HTU21D;19481;51.118;6.940;2024-03-02T20:00:20;13.18;46.67
33109;HTU21D;19481;51.118;6.940;2024-03-02T20:05:23;13.17;48.46
33109;HTU21D;19481;51.118;6.940;2024-03-02T20:10:26;13.19;46.97
33109;HTU21D;19481;51.118;6.940;2024-03-02T20:15:28;13.17;46.92
33109;HTU21D;19481;51.118;6.940;2024-03-02T20:20:31;13.18;48.46
33109;HTU21D;19481;51.118;6.940;2024-03-02T20:25:32;13.17;47.50
33109;HTU21D;19481;51.118;6.940;2024-03-02T20:30:34;13.17;47.98
33109;HTU21D;19481;51.118;6.940;2024-03-02T20:35:37;13.17;48.10
33109;HTU21D;19481;51.118;6.940;2024-03-02T20:40:39;13.17;48.34
33109;HTU21D;19481;51.118;6.940;2024-03-02T20:45:42;13.03;48.83
33109;HTU21D;19481;51.118;6.940;2024-03-02T20:50:45;12.94;49.04
33109;HTU21D;19481;51.118;6.940;2024-03-02T20:55:46;12.97;48.86
33109;HTU21D;19481;51.118;6.940;2024-03-02T21:00:48;12.97;48.89
33109;HTU21D;19481;51.118;6.940;2024-03-02T21:05:51;13.00;48.70
33109;HTU21D;19481;51.118;6.940;2024-03-02T21:10:53;13.03;48.98
33109;HTU21D;19481;51.118;6.940;2024-03-02T21:15:54;13.05;49.05
33109;HTU21D;19481;51.118;6.940;2024-03-02T21:20:57;13.02;49.11
33109;HTU21D;19481;51.118;6.940;2024-03-02T21:25:59;13.03;49.23
33109;HTU21D;19481;51.118;6.940;2024-03-02T21:31:01;13.03;48.84
33109;HTU21D;19481;51.118;6.940;2024-03-02T21:36:05;12.99;48.97
33109;HTU21D;19481;51.118;6.940;2024-03-02T21:41:06;12.91;49.51
33109;HTU21D;19481;51.118;6.940;2024-03-02T21:46:10;12.85;49.67
33109;HTU21D;19481;51.118;6.940;2024-03-02T21:51:15;12.77;49.97
33109;HTU21D;19481;51.118;6.940;2024-03-02T21:56:17;12.72;50.08
33109;HTU21D;19481;51.118;6.940;2024-03-02T22:01:18;12.67;50.73
33109;HTU21D;19481;51.118;6.940;2024-03-02T22:06:21;12.62;50.27
33109;HTU21D;19481;51.118;6.940;2024-03-02T22:11:23;12.58;50.39
33109;HTU21D;19481;51.118;6.940;2024-03-02T22:16:25;12.51;50.72
33109;HTU21D;19481;51.118;6.940;2024-03-02T22:21:28;12.47;50.76
33109;HTU21D;19481;51.118;6.940;2024-03-02T22:26:30;12.42;50.92
33109;HTU21D;19481;51.118;6.940;2024-03-02T22:31:31;12.40;50.94
33109;HTU21D;19481;51.118;6.940;2024-03-02T22:36:34;12.29;51.27
33109;HTU21D;19481;51.118;6.940;2024-03-02T22:41:36;12.28;51.27
33109;HTU21D;19481;51.118;6.940;2024-03-02T22:46:37;12.22;51.40
33109;HTU21D;19481;51.118;6.940;2024-03-02T22:51:40;12.21;51.56
33109;HTU21D;19481;51.118;6.940;2024-03-02T22:56:42;12.21;51.41
33109;HTU21D;19481;51.118;6.940;2024-03-02T23:01:44;12.19;51.51
33109;HTU21D;19481;51.118;6.940;2024-03-02T23:06:47;12.17;51.70
33109;HTU21D;19481;51.118;6.940;2024-03-02T23:11:48;12.12;51.66
33109;HTU21D;19481;51.118;6.940;2024-03-02T23:16:51;12.07;51.84
33109;HTU21D;19481;51.118;6.940;2024-03-02T23:21:54;12.02;51.85
33109;HTU21D;19481;51.118;6.940;2024-03-02T23:26:56;11.94;52.21
33109;HTU21D;19481;51.118;6.940;2024-03-02T23:31:57;11.93;52.33
33109;HTU21D;19481;51.118;6.940;2024-03-02T23:37:01;11.89;52.21
33109;HTU21D;19481;51.118;6.940;2024-03-02T23:42:02;11.87;52.06
33109;HTU21D;19481;51.118;6.940;2024-03-02T23:47:05;11.87;52.36
33109;HTU21D;19481;51.118;6.940;2024-03-02T23:52:09;11.84;52.04
33109;HTU21D;19481;51.118;6.940;2024-03-02T23:57:11;11.79;52.26
